Aerbrava en el facebook Aerbrava en el twitter Google+ Instagram Aerbrava en el youtube tumblr flikr pinterest
Aerbrava in English aerbrava en Español
Escola de Pilots
Telèfon 972234126 972 23 41 26
 
Aerbrava in English aerbrava en Español
Aerbrava - meteorologia

Informació meteorològica aeronàutica

 

En aquest apartat apareix la informació meteorològica aeronàutica que és utilitzada a les pràctiques dels alumnes de l’Escola de Pilots del nostre centre durant la seva formació, pel que pot no ser actual i s’hauria d’utilitzar pel seu propi compte i risc. AERBRAVA no es fa responsable del seu ús.

 

TEMPS ACTUAL

Satèl·lit Meteorològic

sat24.com

Servei Meteorològic de Catalunya

 

LEGE 192100Z 32003KT 9999 FEW040 22/17 Q1019
LEGE 192030Z VRB02KT 9999 FEW040 23/17 Q1019
LEGE 192000Z VRB02KT 9999 FEW040 22/17 Q1019
LEGE 191930Z 18004KT 150V210 9999 FEW040 24/16 Q1019
LEGE 191900Z 16003KT 130V190 9999 FEW040 25/16 Q1019
LEGE 191830Z 20003KT 160V240 9999 FEW040 26/16 Q1018
LEGE 191800Z 20007KT 9999 FEW030 26/16 Q1018
LEGE 191730Z 21007KT 180V250 9999 FEW030 27/15 Q1018
TAF LEGE 191700Z 1918/2018 18010KT 9999 FEW030 TX35/2013Z TN18/2006Z
BECMG 1918/1920 VRB04KT
BECMG 2009/2011 06008KT
BECMG 2012/2014 18012KT

Aviation Weather

 
Aerbrava en el facebook Aerbrava en el twitter Google+ Instagram Aerbrava en el youtube tumblr flikr pinterest

¡CSS Vàlid!